Time;durP1;ratioP1;P1;durP2;ratioP2;P2;SDS_P1;SDS_P2;PMS_P1;PMS_P2;Temp;Humidity;BMP_temperature;BMP_pressure;BME280_temperature;BME280_humidity;BME280_pressure;Samples;Min_cycle;Max_cycle;Signal;HPM_P1;HPM_P2
2021/04/25 00:01:59;;;;;;;5.68;2.58;;;;;;;;;;5038580;28;20520;-82
2021/04/25 00:04:25;;;;;;;7.93;2.70;;;;;;;;;;5074545;28;20113;-82
2021/04/25 00:06:51;;;;;;;5.63;2.42;;;;;;;;;;5064103;28;20060;-82
2021/04/25 00:09:19;;;;;;;4.65;2.60;;;;;;;;;;5043887;28;20021;-82
2021/04/25 00:11:45;;;;;;;5.05;2.38;;;;;;;;;;5044705;28;20059;-82
2021/04/25 00:14:11;;;;;;;5.03;2.70;;;;;;;;;;5054669;28;20104;-82
2021/04/25 00:16:37;;;;;;;7.68;2.53;;;;;;;;;;5074554;28;20531;-82
2021/04/25 00:19:05;;;;;;;9.18;2.78;;;;;;;;;;5056811;28;20025;-82
2021/04/25 00:21:31;;;;;;;7.03;2.72;;;;;;;;;;5064765;28;20116;-82
2021/04/25 00:23:57;;;;;;;5.50;2.47;;;;;;;;;;5056622;28;20028;-82
2021/04/25 00:26:23;;;;;;;4.25;2.30;;;;;;;;;;5056316;28;20572;-82
2021/04/25 00:28:49;;;;;;;5.70;2.88;;;;;;;;;;5051604;28;20089;-82
2021/04/25 00:31:15;;;;;;;8.50;2.92;;;;;;;;;;5056954;28;20064;-82
2021/04/25 00:33:41;;;;;;;4.65;2.15;;;;;;;;;;5046029;28;20123;-82
2021/04/25 00:36:07;;;;;;;5.25;2.20;;;;;;;;;;5055841;28;20460;-82
2021/04/25 00:38:33;;;;;;;6.70;2.25;;;;;;;;;;5056620;28;20528;-82
2021/04/25 00:40:59;;;;;;;5.78;2.35;;;;;;;;;;5050516;28;20365;-82
2021/04/25 00:43:25;;;;;;;3.95;2.50;;;;;;;;;;5055698;28;20448;-82
2021/04/25 00:45:51;;;;;;;5.00;2.78;;;;;;;;;;5055565;28;20037;-82
2021/04/25 00:48:17;;;;;;;8.95;3.03;;;;;;;;;;5056144;28;20415;-82
2021/04/25 00:50:44;;;;;;;5.45;2.80;;;;;;;;;;5055424;28;20531;-82
2021/04/25 00:53:10;;;;;;;8.50;3.03;;;;;;;;;;5073118;28;20060;-82
2021/04/25 00:55:36;;;;;;;6.75;2.63;;;;;;;;;;5073535;28;20029;-82
2021/04/25 00:58:04;;;;;;;7.75;2.63;;;;;;;;;;5055617;28;20062;-82
2021/04/25 01:00:30;;;;;;;7.18;2.47;;;;;;;;;;5055658;28;20032;-82
2021/04/25 01:02:56;;;;;;;4.60;2.28;;;;;;;;;;5048416;28;20574;-82
2021/04/25 01:05:23;;;;;;;7.20;2.67;;;;;;;;;;5042428;28;20033;-82
2021/04/25 01:07:49;;;;;;;7.32;2.90;;;;;;;;;;5053182;28;20048;-82
2021/04/25 01:10:16;;;;;;;8.50;2.70;;;;;;;;;;5055734;28;20154;-82
2021/04/25 01:12:42;;;;;;;5.88;3.03;;;;;;;;;;5047908;28;20064;-82
2021/04/25 01:15:13;;;;;;;7.18;2.90;;;;;;;;;;5043688;28;20047;-82
2021/04/25 01:17:40;;;;;;;5.82;2.75;;;;;;;;;;5048948;28;20016;-82
2021/04/25 01:20:08;;;;;;;5.03;3.00;;;;;;;;;;5044435;28;20459;-82
2021/04/25 01:22:34;;;;;;;5.05;2.58;;;;;;;;;;5043801;28;20127;-82
2021/04/25 01:25:00;;;;;;;6.90;3.05;;;;;;;;;;5048207;28;20456;-82
2021/04/25 01:27:26;;;;;;;7.75;3.05;;;;;;;;;;5043186;28;20021;-82
2021/04/25 01:30:04;;;;;;;7.45;3.28;;;;;;;;;;5041963;28;20036;-82
2021/04/25 01:32:30;;;;;;;7.70;3.30;;;;;;;;;;5042912;28;20123;-82
2021/04/25 01:34:56;;;;;;;8.60;3.70;;;;;;;;;;5052667;28;20043;-82
2021/04/25 01:37:23;;;;;;;6.22;3.78;;;;;;;;;;5044046;28;20120;-82
2021/04/25 01:39:50;;;;;;;8.45;3.85;;;;;;;;;;5048211;28;20028;-82
2021/04/25 01:42:16;;;;;;;9.45;3.47;;;;;;;;;;5055568;28;20563;-82
2021/04/25 01:44:42;;;;;;;6.75;3.40;;;;;;;;;;5040847;28;20029;-82
2021/04/25 01:47:08;;;;;;;6.47;3.72;;;;;;;;;;5043998;28;20506;-82
2021/04/25 01:49:34;;;;;;;7.68;3.97;;;;;;;;;;5045508;28;20017;-82
2021/04/25 01:52:01;;;;;;;5.80;3.38;;;;;;;;;;5050752;28;20121;-82
2021/04/25 01:54:27;;;;;;;9.48;3.92;;;;;;;;;;5057467;28;20032;-83
2021/04/25 01:56:52;;;;;;;10.77;3.53;;;;;;;;;;5060951;28;20365;-83
2021/04/25 01:59:19;;;;;;;8.70;3.67;;;;;;;;;;5059712;28;20036;-82
2021/04/25 02:01:45;;;;;;;6.65;3.13;;;;;;;;;;5057131;28;20427;-82
2021/04/25 02:04:11;;;;;;;5.93;3.22;;;;;;;;;;5079086;28;20453;-82
2021/04/25 02:06:38;;;;;;;7.70;3.88;;;;;;;;;;5050267;28;20076;-82
2021/04/25 02:09:04;;;;;;;6.82;3.55;;;;;;;;;;5058061;28;20033;-82
2021/04/25 02:11:31;;;;;;;6.88;3.22;;;;;;;;;;5049011;28;20060;-82
2021/04/25 02:13:57;;;;;;;6.55;3.10;;;;;;;;;;5047473;28;20017;-82
2021/04/25 02:16:23;;;;;;;7.43;3.45;;;;;;;;;;5041055;28;20090;-82
2021/04/25 02:18:49;;;;;;;6.35;2.92;;;;;;;;;;5061282;28;20461;-82
2021/04/25 02:21:15;;;;;;;5.80;3.30;;;;;;;;;;5079264;28;20021;-82
2021/04/25 02:23:41;;;;;;;7.68;3.90;;;;;;;;;;5072087;28;20021;-83
2021/04/25 02:26:07;;;;;;;7.88;3.88;;;;;;;;;;5091946;28;20017;-82
2021/04/25 02:28:33;;;;;;;10.27;4.40;;;;;;;;;;5076649;28;20016;-82
2021/04/25 02:30:59;;;;;;;9.60;3.90;;;;;;;;;;5072745;28;20008;-82
2021/04/25 02:33:25;;;;;;;8.25;4.10;;;;;;;;;;5070314;28;20051;-82
2021/04/25 02:35:51;;;;;;;8.23;3.38;;;;;;;;;;5068607;28;20543;-82
2021/04/25 02:38:17;;;;;;;9.85;4.20;;;;;;;;;;5073391;28;20016;-83
2021/04/25 02:40:43;;;;;;;11.00;3.55;;;;;;;;;;5070418;28;20061;-82
2021/04/25 02:43:09;;;;;;;8.55;4.10;;;;;;;;;;5077875;28;20005;-82
2021/04/25 02:45:37;;;;;;;7.22;4.07;;;;;;;;;;5093970;28;20013;-82
2021/04/25 02:48:07;;;;;;;8.15;3.95;;;;;;;;;;5088653;28;20041;-82
2021/04/25 02:50:35;;;;;;;7.38;3.35;;;;;;;;;;5094323;28;20029;-82
2021/04/25 02:53:01;;;;;;;7.82;3.85;;;;;;;;;;5095050;28;20092;-82
2021/04/25 02:55:27;;;;;;;9.57;3.83;;;;;;;;;;5074866;28;20610;-82
2021/04/25 02:57:53;;;;;;;8.63;3.97;;;;;;;;;;5094603;28;20070;-82
2021/04/25 03:00:21;;;;;;;9.70;4.00;;;;;;;;;;5077719;28;20064;-82
2021/04/25 03:02:47;;;;;;;7.93;3.95;;;;;;;;;;5076889;28;20028;-82
2021/04/25 03:05:14;;;;;;;9.05;4.00;;;;;;;;;;5077046;28;20048;-82
2021/04/25 03:07:40;;;;;;;7.93;3.95;;;;;;;;;;5058401;28;20468;-82
2021/04/25 03:10:07;;;;;;;7.28;3.85;;;;;;;;;;5073617;28;20024;-82
2021/04/25 03:12:33;;;;;;;9.82;4.05;;;;;;;;;;5068939;28;20033;-82
2021/04/25 03:14:59;;;;;;;8.23;3.78;;;;;;;;;;5095517;28;20008;-82
2021/04/25 03:17:25;;;;;;;10.75;4.25;;;;;;;;;;5075488;28;20016;-82
2021/04/25 03:19:51;;;;;;;13.38;4.82;;;;;;;;;;5073688;28;20005;-82
2021/04/25 03:22:17;;;;;;;9.98;4.25;;;;;;;;;;5079461;28;20479;-82
2021/04/25 03:24:43;;;;;;;13.48;4.07;;;;;;;;;;5078079;28;20028;-82
2021/04/25 03:27:09;;;;;;;8.20;4.18;;;;;;;;;;5066529;28;20021;-82
2021/04/25 03:29:35;;;;;;;6.82;3.30;;;;;;;;;;5057997;28;20051;-82
2021/04/25 03:32:01;;;;;;;8.10;3.60;;;;;;;;;;5075438;28;20021;-83
2021/04/25 03:34:27;;;;;;;7.05;4.30;;;;;;;;;;5090855;28;20031;-83
2021/04/25 03:36:53;;;;;;;6.20;3.85;;;;;;;;;;5071287;28;20025;-82
2021/04/25 03:39:19;;;;;;;10.93;4.05;;;;;;;;;;5094030;28;20033;-82
2021/04/25 03:41:45;;;;;;;9.35;4.28;;;;;;;;;;5071451;28;20047;-82
2021/04/25 03:44:13;;;;;;;9.80;3.40;;;;;;;;;;5092579;28;20367;-83
2021/04/25 03:46:39;;;;;;;7.28;3.50;;;;;;;;;;5072801;28;20029;-83
2021/04/25 03:49:05;;;;;;;10.27;4.22;;;;;;;;;;5071715;28;20021;-83
2021/04/25 03:51:31;;;;;;;10.98;4.15;;;;;;;;;;5066179;28;20036;-83
2021/04/25 03:53:57;;;;;;;8.05;3.42;;;;;;;;;;5061077;28;20020;-83
2021/04/25 03:56:23;;;;;;;6.50;3.72;;;;;;;;;;5066640;28;20055;-83
2021/04/25 03:58:49;;;;;;;7.32;3.80;;;;;;;;;;5042589;28;20022;-83
2021/04/25 04:01:15;;;;;;;7.03;3.63;;;;;;;;;;5053629;28;20055;-82
2021/04/25 04:03:41;;;;;;;11.93;3.90;;;;;;;;;;5055010;28;20025;-82
2021/04/25 04:06:07;;;;;;;5.32;3.08;;;;;;;;;;5052130;28;20408;-82
2021/04/25 04:08:33;;;;;;;10.98;3.85;;;;;;;;;;5065708;28;20158;-82
2021/04/25 04:10:59;;;;;;;7.47;4.07;;;;;;;;;;5054203;28;20037;-83
2021/04/25 04:13:25;;;;;;;8.75;2.83;;;;;;;;;;5055656;28;20125;-82
2021/04/25 04:15:51;;;;;;;5.70;2.95;;;;;;;;;;5069072;28;20484;-82
2021/04/25 04:18:17;;;;;;;6.05;2.80;;;;;;;;;;5056514;28;20055;-82
2021/04/25 04:20:43;;;;;;;5.05;3.05;;;;;;;;;;5057377;28;20024;-82
2021/04/25 04:23:09;;;;;;;8.65;2.95;;;;;;;;;;5057646;28;20016;-82
2021/04/25 04:25:35;;;;;;;5.40;2.95;;;;;;;;;;5057392;28;20052;-82
2021/04/25 04:28:01;;;;;;;8.68;3.30;;;;;;;;;;5057410;28;20025;-82
2021/04/25 04:30:27;;;;;;;5.88;3.10;;;;;;;;;;5049912;28;20028;-83
2021/04/25 04:32:54;;;;;;;6.70;3.28;;;;;;;;;;5057319;28;20025;-83
2021/04/25 04:35:20;;;;;;;4.70;2.85;;;;;;;;;;5054691;28;20020;-83
2021/04/25 04:37:46;;;;;;;5.13;2.55;;;;;;;;;;5056711;28;20052;-83
2021/04/25 04:40:12;;;;;;;8.27;3.08;;;;;;;;;;5056694;28;20021;-83
2021/04/25 04:42:38;;;;;;;5.05;2.78;;;;;;;;;;5056600;28;20119;-82
2021/04/25 04:45:04;;;;;;;6.43;3.03;;;;;;;;;;5074141;28;20107;-82
2021/04/25 04:47:30;;;;;;;8.15;3.25;;;;;;;;;;5053719;28;20032;-82
2021/04/25 04:49:56;;;;;;;6.00;2.75;;;;;;;;;;5073675;28;20492;-83
2021/04/25 04:52:22;;;;;;;9.70;3.10;;;;;;;;;;5041073;28;20060;-83
2021/04/25 04:54:49;;;;;;;5.85;3.17;;;;;;;;;;5052230;28;20519;-82
2021/04/25 04:57:15;;;;;;;5.75;3.08;;;;;;;;;;5047743;28;20074;-83
2021/04/25 04:59:42;;;;;;;8.95;2.95;;;;;;;;;;5056141;28;20017;-83
2021/04/25 05:02:08;;;;;;;5.28;2.92;;;;;;;;;;5056052;28;20032;-83
2021/04/25 05:04:34;;;;;;;5.45;2.40;;;;;;;;;;5054599;28;20028;-82
2021/04/25 05:07:00;;;;;;;5.93;2.75;;;;;;;;;;5057475;28;20131;-82
2021/04/25 05:09:26;;;;;;;6.88;2.55;;;;;;;;;;5075278;28;20048;-83
2021/04/25 05:11:52;;;;;;;8.73;3.40;;;;;;;;;;5057469;28;20043;-83
2021/04/25 05:14:18;;;;;;;7.93;3.00;;;;;;;;;;5057672;28;20028;-83
2021/04/25 05:16:44;;;;;;;7.47;2.83;;;;;;;;;;5075089;28;20020;-83
2021/04/25 05:19:10;;;;;;;8.50;3.17;;;;;;;;;;5048986;28;20016;-82
2021/04/25 05:21:36;;;;;;;7.38;3.08;;;;;;;;;;5051583;28;20027;-82
2021/04/25 05:24:02;;;;;;;8.50;2.95;;;;;;;;;;5056679;28;20020;-83
2021/04/25 05:26:28;;;;;;;6.95;3.25;;;;;;;;;;5054746;28;20032;-83
2021/04/25 05:28:54;;;;;;;4.93;2.83;;;;;;;;;;5047100;28;20025;-82
2021/04/25 05:31:20;;;;;;;5.55;2.92;;;;;;;;;;5046489;28;20028;-83
2021/04/25 05:33:46;;;;;;;6.43;3.45;;;;;;;;;;5058523;28;20549;-83
2021/04/25 05:36:12;;;;;;;7.00;3.10;;;;;;;;;;5052649;28;20021;-83
2021/04/25 05:38:38;;;;;;;5.38;2.60;;;;;;;;;;5057576;28;20025;-83
2021/04/25 05:41:04;;;;;;;7.22;2.70;;;;;;;;;;5059822;28;20490;-83
2021/04/25 05:43:30;;;;;;;7.90;3.50;;;;;;;;;;5058016;28;20024;-83
2021/04/25 05:45:56;;;;;;;5.20;2.80;;;;;;;;;;5054718;28;20024;-83
2021/04/25 05:48:22;;;;;;;7.45;3.03;;;;;;;;;;5050710;28;20040;-83
2021/04/25 05:50:48;;;;;;;5.45;2.65;;;;;;;;;;5048821;28;20529;-83
2021/04/25 05:53:14;;;;;;;4.85;2.80;;;;;;;;;;5056485;28;20029;-83
2021/04/25 05:55:40;;;;;;;5.78;2.67;;;;;;;;;;5050911;28;20082;-83
2021/04/25 05:58:06;;;;;;;7.55;2.72;;;;;;;;;;5047685;28;20037;-83
2021/04/25 06:00:33;;;;;;;9.35;2.90;;;;;;;;;;5060004;28;20037;-83
2021/04/25 06:02:59;;;;;;;4.18;2.67;;;;;;;;;;5054118;28;20044;-84
2021/04/25 06:05:27;;;;;;;4.10;2.67;;;;;;;;;;5042743;28;20036;-85
2021/04/25 06:07:53;;;;;;;6.28;2.15;;;;;;;;;;5046859;28;20049;-83
2021/04/25 06:10:20;;;;;;;6.43;2.58;;;;;;;;;;5054356;28;20074;-82
2021/04/25 06:12:51;;;;;;;4.72;2.35;;;;;;;;;;5056918;28;20472;-83
2021/04/25 06:15:18;;;;;;;5.45;2.63;;;;;;;;;;5053575;28;20063;-83
2021/04/25 06:17:44;;;;;;;6.10;2.60;;;;;;;;;;5055448;28;20035;-83
2021/04/25 06:20:10;;;;;;;3.80;2.53;;;;;;;;;;5049238;28;20033;-84
2021/04/25 06:22:36;;;;;;;8.15;2.53;;;;;;;;;;5052815;28;20033;-84
2021/04/25 06:25:02;;;;;;;6.32;2.50;;;;;;;;;;5054615;28;20388;-84
2021/04/25 06:27:28;;;;;;;5.05;2.20;;;;;;;;;;5052275;28;20384;-84
2021/04/25 06:29:54;;;;;;;4.82;2.33;;;;;;;;;;5048249;28;20124;-84
2021/04/25 06:32:20;;;;;;;4.65;2.30;;;;;;;;;;5047718;28;20025;-84
2021/04/25 06:34:47;;;;;;;6.22;2.42;;;;;;;;;;5051723;28;20025;-82
2021/04/25 06:37:13;;;;;;;4.35;2.40;;;;;;;;;;5049360;28;20025;-84
2021/04/25 06:39:39;;;;;;;4.80;1.92;;;;;;;;;;5046518;28;20084;-84
2021/04/25 06:42:05;;;;;;;4.53;2.25;;;;;;;;;;5057154;28;20029;-85
2021/04/25 06:44:32;;;;;;;4.15;1.85;;;;;;;;;;5055718;28;20036;-82
2021/04/25 06:46:58;;;;;;;6.60;2.10;;;;;;;;;;5053823;28;20025;-83
2021/04/25 06:49:24;;;;;;;5.40;2.33;;;;;;;;;;5048522;28;20030;-83
2021/04/25 06:51:50;;;;;;;6.78;2.03;;;;;;;;;;5045200;28;20083;-83
2021/04/25 06:54:16;;;;;;;4.13;1.77;;;;;;;;;;5053925;28;20128;-83
2021/04/25 06:56:42;;;;;;;4.22;2.20;;;;;;;;;;5056391;28;20108;-84
2021/04/25 06:59:09;;;;;;;5.00;2.40;;;;;;;;;;5045190;28;20029;-84
2021/04/25 07:01:35;;;;;;;4.53;1.92;;;;;;;;;;5040612;28;20119;-83
2021/04/25 07:04:01;;;;;;;5.53;2.30;;;;;;;;;;5051901;28;20115;-83
2021/04/25 07:06:27;;;;;;;8.20;2.22;;;;;;;;;;5040420;28;20069;-84
2021/04/25 07:08:53;;;;;;;8.00;2.45;;;;;;;;;;5053489;28;20488;-83
2021/04/25 07:11:19;;;;;;;4.40;1.80;;;;;;;;;;5045843;28;20032;-83
2021/04/25 07:13:45;;;;;;;6.18;2.45;;;;;;;;;;5044316;28;20033;-84
2021/04/25 07:16:11;;;;;;;7.50;2.35;;;;;;;;;;5046966;28;20476;-84
2021/04/25 07:18:37;;;;;;;7.40;1.95;;;;;;;;;;5047336;28;20021;-84
2021/04/25 07:21:03;;;;;;;4.72;2.20;;;;;;;;;;5047242;28;20537;-84
2021/04/25 07:23:29;;;;;;;4.13;1.88;;;;;;;;;;5038819;28;20045;-84
2021/04/25 07:25:56;;;;;;;4.90;1.65;;;;;;;;;;5047738;28;20068;-84
2021/04/25 07:28:23;;;;;;;3.40;1.75;;;;;;;;;;5041702;28;20032;-83
2021/04/25 07:30:49;;;;;;;3.92;1.65;;;;;;;;;;5050454;28;20029;-84
2021/04/25 07:33:18;;;;;;;5.47;1.88;;;;;;;;;;5054713;28;20029;-83
2021/04/25 07:35:44;;;;;;;8.18;2.33;;;;;;;;;;5050835;28;20061;-84
2021/04/25 07:38:11;;;;;;;4.47;1.88;;;;;;;;;;5050181;28;20024;-84
2021/04/25 07:40:38;;;;;;;4.22;2.00;;;;;;;;;;5054043;28;20118;-84
2021/04/25 07:43:04;;;;;;;4.75;2.10;;;;;;;;;;5054685;28;20540;-84
2021/04/25 07:45:30;;;;;;;5.25;2.30;;;;;;;;;;5049398;28;20055;-84
2021/04/25 07:47:56;;;;;;;5.22;1.80;;;;;;;;;;5047236;28;20064;-86
2021/04/25 07:50:22;;;;;;;4.43;1.95;;;;;;;;;;5053400;28;20028;-86
2021/04/25 07:52:48;;;;;;;3.40;1.73;;;;;;;;;;5047778;28;20025;-86
2021/04/25 07:55:14;;;;;;;8.75;2.55;;;;;;;;;;5045100;28;20505;-86
2021/04/25 07:57:41;;;;;;;4.85;1.90;;;;;;;;;;5042365;28;20036;-86
2021/04/25 08:00:08;;;;;;;6.47;1.95;;;;;;;;;;5054681;28;20021;-86
2021/04/25 08:02:34;;;;;;;3.50;1.65;;;;;;;;;;5053600;28;20075;-86
2021/04/25 08:05:00;;;;;;;3.50;1.70;;;;;;;;;;5045978;28;20021;-87
2021/04/25 08:07:26;;;;;;;4.95;1.95;;;;;;;;;;5040630;28;20134;-86
2021/04/25 08:09:52;;;;;;;6.50;2.20;;;;;;;;;;5044438;28;20029;-86
2021/04/25 08:12:18;;;;;;;4.65;1.95;;;;;;;;;;5043752;28;20041;-85
2021/04/25 08:14:44;;;;;;;3.55;1.73;;;;;;;;;;5045162;28;20033;-86
2021/04/25 08:17:10;;;;;;;3.10;2.00;;;;;;;;;;5048313;28;20037;-86
2021/04/25 08:19:36;;;;;;;4.72;2.00;;;;;;;;;;5052863;28;20028;-85
2021/04/25 08:22:02;;;;;;;4.85;2.10;;;;;;;;;;5045639;28;20048;-85
2021/04/25 08:24:28;;;;;;;5.57;2.00;;;;;;;;;;5058464;28;20044;-86
2021/04/25 08:26:54;;;;;;;5.95;2.05;;;;;;;;;;5047029;28;20040;-85
2021/04/25 08:29:20;;;;;;;3.72;2.05;;;;;;;;;;5053995;28;20017;-86
2021/04/25 08:31:46;;;;;;;6.35;1.90;;;;;;;;;;5045255;28;20496;-85
2021/04/25 08:34:12;;;;;;;4.38;2.13;;;;;;;;;;5053987;28;20033;-85
2021/04/25 08:36:38;;;;;;;3.17;1.88;;;;;;;;;;5046944;28;20021;-85
2021/04/25 08:39:05;;;;;;;3.97;1.83;;;;;;;;;;5033339;28;20116;-84
2021/04/25 08:41:31;;;;;;;5.78;1.88;;;;;;;;;;5043944;28;20021;-84
2021/04/25 08:44:00;;;;;;;6.07;1.92;;;;;;;;;;5044003;28;20056;-84
2021/04/25 08:46:27;;;;;;;4.57;1.83;;;;;;;;;;5036687;28;20466;-83
2021/04/25 08:48:53;;;;;;;5.00;2.17;;;;;;;;;;5045891;28;20037;-84
2021/04/25 08:51:20;;;;;;;5.60;2.10;;;;;;;;;;5050463;28;20083;-85
2021/04/25 08:53:46;;;;;;;5.28;1.65;;;;;;;;;;5051029;28;20079;-83
2021/04/25 08:56:13;;;;;;;5.68;2.00;;;;;;;;;;5047584;28;20028;-83
2021/04/25 08:58:39;;;;;;;2.85;1.73;;;;;;;;;;5054537;28;20495;-83
2021/04/25 09:01:05;;;;;;;4.72;1.67;;;;;;;;;;5042999;28;20013;-84
2021/04/25 09:03:31;;;;;;;9.35;1.70;;;;;;;;;;5048734;28;21637;-84
2021/04/25 09:06:01;;;;;;;3.83;1.90;;;;;;;;;;5054390;28;20434;-84
2021/04/25 09:08:43;;;;;;;5.03;1.50;;;;;;;;;;5057262;28;20561;-84
2021/04/25 09:11:09;;;;;;;3.70;1.73;;;;;;;;;;5041307;28;20036;-84
2021/04/25 09:13:35;;;;;;;6.32;1.70;;;;;;;;;;5065245;28;20056;-84
2021/04/25 09:16:11;;;;;;;3.60;2.00;;;;;;;;;;5058116;28;20052;-84
2021/04/25 09:18:37;;;;;;;3.88;1.77;;;;;;;;;;5044511;28;20025;-84
2021/04/25 09:21:13;;;;;;;4.82;1.90;;;;;;;;;;5051422;28;20043;-85
2021/04/25 09:23:40;;;;;;;3.63;1.60;;;;;;;;;;5062583;28;20016;-85
2021/04/25 09:26:06;;;;;;;2.70;1.50;;;;;;;;;;5058586;28;20415;-85
2021/04/25 09:28:37;;;;;;;4.20;1.90;;;;;;;;;;5056427;28;20119;-85
2021/04/25 09:31:03;;;;;;;3.35;1.52;;;;;;;;;;5058476;28;20122;-84
2021/04/25 09:33:47;;;;;;;2.70;1.25;;;;;;;;;;5055761;28;20089;-85
2021/04/25 09:36:14;;;;;;;5.35;1.73;;;;;;;;;;5059146;28;20089;-84
2021/04/25 09:38:40;;;;;;;2.65;1.23;;;;;;;;;;5058789;28;20017;-85
2021/04/25 09:41:06;;;;;;;2.28;1.33;;;;;;;;;;5048824;28;20028;-85
2021/04/25 09:43:45;;;;;;;4.63;1.77;;;;;;;;;;5069513;28;20059;-84
2021/04/25 09:46:14;;;;;;;3.10;1.63;;;;;;;;;;5056534;28;20048;-85
2021/04/25 09:48:42;;;;;;;4.55;1.42;;;;;;;;;;5054271;28;20107;-85
2021/04/25 09:51:13;;;;;;;2.33;1.30;;;;;;;;;;5053916;28;20032;-85
2021/04/25 09:53:43;;;;;;;2.83;1.35;;;;;;;;;;5056076;28;20028;-85
2021/04/25 09:56:10;;;;;;;3.33;1.52;;;;;;;;;;5055188;28;20024;-85
2021/04/25 09:58:55;;;;;;;2.80;1.50;;;;;;;;;;5053656;28;20031;-85
2021/04/25 10:01:25;;;;;;;2.03;1.27;;;;;;;;;;5049560;28;20056;-85
2021/04/25 10:03:51;;;;;;;2.05;0.98;;;;;;;;;;5049022;28;20052;-85
2021/04/25 10:06:19;;;;;;;3.13;1.30;;;;;;;;;;5048093;28;20064;-85
2021/04/25 10:08:49;;;;;;;5.90;1.73;;;;;;;;;;5060721;28;20476;-85
2021/04/25 10:11:15;;;;;;;6.35;1.23;;;;;;;;;;5051867;28;20029;-85
2021/04/25 10:13:45;;;;;;;3.88;1.45;;;;;;;;;;5035899;28;20082;-85
2021/04/25 10:16:11;;;;;;;2.53;1.23;;;;;;;;;;5056289;28;20024;-85
2021/04/25 10:18:37;;;;;;;2.78;1.20;;;;;;;;;;5045861;28;20519;-85
2021/04/25 10:21:04;;;;;;;3.15;1.15;;;;;;;;;;5058810;28;20020;-85
2021/04/25 10:23:30;;;;;;;3.42;1.58;;;;;;;;;;5075461;28;20052;-85
2021/04/25 10:25:56;;;;;;;6.55;1.55;;;;;;;;;;5058332;28;20483;-85
2021/04/25 10:28:48;;;;;;;4.13;1.63;;;;;;;;;;5056354;28;20024;-85
2021/04/25 10:31:17;;;;;;;3.83;1.45;;;;;;;;;;5036209;28;20048;-85
2021/04/25 10:33:54;;;;;;;1.98;1.30;;;;;;;;;;5054132;28;20063;-84
2021/04/25 10:36:20;;;;;;;4.43;1.40;;;;;;;;;;5059026;28;20522;-84
2021/04/25 10:38:46;;;;;;;2.83;1.30;;;;;;;;;;5055313;28;20131;-85
2021/04/25 10:41:19;;;;;;;3.03;1.10;;;;;;;;;;5051139;28;20032;-84
2021/04/25 10:43:58;;;;;;;3.08;1.50;;;;;;;;;;5058742;28;20020;-84
2021/04/25 10:46:24;;;;;;;1.58;1.08;;;;;;;;;;5056253;28;20039;-84
2021/04/25 10:48:50;;;;;;;2.63;0.93;;;;;;;;;;5038841;28;20029;-84
2021/04/25 10:51:17;;;;;;;3.55;1.08;;;;;;;;;;5051284;28;20025;-85
2021/04/25 10:53:46;;;;;;;3.80;1.10;;;;;;;;;;5057345;28;20136;-86
2021/04/25 10:56:21;;;;;;;2.63;1.10;;;;;;;;;;5075745;28;20108;-85
2021/04/25 10:58:48;;;;;;;2.38;1.02;;;;;;;;;;5058405;28;20048;-86
2021/04/25 11:01:33;;;;;;;4.68;1.00;;;;;;;;;;5075830;28;20028;-85
2021/04/25 11:03:59;;;;;;;2.25;0.90;;;;;;;;;;5058013;28;20060;-85
2021/04/25 11:06:26;;;;;;;2.58;0.77;;;;;;;;;;5075028;28;20055;-85
2021/04/25 11:08:52;;;;;;;2.00;0.82;;;;;;;;;;5051796;28;20032;-85
2021/04/25 11:11:31;;;;;;;1.40;0.70;;;;;;;;;;5057767;28;20468;-85
2021/04/25 11:13:57;;;;;;;1.63;0.90;;;;;;;;;;5058969;28;20079;-85
2021/04/25 11:16:23;;;;;;;1.88;0.85;;;;;;;;;;5051639;28;20017;-84
2021/04/25 11:18:56;;;;;;;4.63;1.25;;;;;;;;;;5053148;28;20381;-84
2021/04/25 11:23:58;;;;;;;3.05;0.70;;;;;;;;;;5074075;28;20033;-85
2021/04/25 11:26:42;;;;;;;3.10;0.80;;;;;;;;;;5049985;28;20119;-85
2021/04/25 11:29:13;;;;;;;0.77;0.50;;;;;;;;;;5055203;28;20028;-85
2021/04/25 11:31:49;;;;;;;1.40;0.70;;;;;;;;;;5048096;28;20095;-85
2021/04/25 11:34:35;;;;;;;3.42;0.85;;;;;;;;;;5041122;28;20044;-85
2021/04/25 11:37:01;;;;;;;2.78;0.70;;;;;;;;;;5047974;28;20059;-84
2021/04/25 11:39:29;;;;;;;4.15;1.05;;;;;;;;;;5072120;28;20369;-85
2021/04/25 11:41:55;;;;;;;1.80;0.70;;;;;;;;;;5057263;28;20029;-85
2021/04/25 11:44:41;;;;;;;1.88;0.60;;;;;;;;;;5056212;28;20407;-85
2021/04/25 11:47:11;;;;;;;1.77;0.77;;;;;;;;;;5056559;28;20052;-84
2021/04/25 11:49:39;;;;;;;2.83;0.80;;;;;;;;;;5057408;28;20052;-85
2021/04/25 11:52:09;;;;;;;1.40;0.70;;;;;;;;;;5056412;28;20024;-87
2021/04/25 11:54:36;;;;;;;3.47;0.63;;;;;;;;;;5050241;28;20021;-85
2021/04/25 11:57:11;;;;;;;1.15;0.52;;;;;;;;;;5052040;28;20756;-85
2021/04/25 11:59:50;;;;;;;1.52;0.35;;;;;;;;;;5047936;28;20044;-85
2021/04/25 12:02:17;;;;;;;2.97;0.70;;;;;;;;;;5069395;28;20021;-84
2021/04/25 12:04:47;;;;;;;3.47;0.52;;;;;;;;;;5072812;28;20063;-85
2021/04/25 12:07:13;;;;;;;0.65;0.40;;;;;;;;;;5057909;28;20102;-85
2021/04/25 12:09:40;;;;;;;1.85;0.60;;;;;;;;;;5051447;28;20025;-85
2021/04/25 12:12:07;;;;;;;1.48;0.45;;;;;;;;;;5052919;28;20474;-86
2021/04/25 12:14:33;;;;;;;4.43;0.70;;;;;;;;;;5047081;28;20073;-85
2021/04/25 12:17:12;;;;;;;0.85;0.35;;;;;;;;;;5070286;28;20033;-84
2021/04/25 12:19:38;;;;;;;1.67;0.55;;;;;;;;;;5054629;28;20108;-88
2021/04/25 12:22:04;;;;;;;3.53;1.05;;;;;;;;;;5041143;28;20025;-84
2021/04/25 12:24:30;;;;;;;1.23;0.50;;;;;;;;;;5051824;28;20020;-84
2021/04/25 12:26:57;;;;;;;1.83;0.65;;;;;;;;;;5050787;28;20029;-84
2021/04/25 12:29:33;;;;;;;2.38;0.40;;;;;;;;;;5049916;28;20496;-85
2021/04/25 12:31:59;;;;;;;2.60;0.45;;;;;;;;;;5061346;28;20107;-85
2021/04/25 12:34:28;;;;;;;2.85;0.57;;;;;;;;;;5039228;28;20122;-85
2021/04/25 12:36:54;;;;;;;1.52;0.80;;;;;;;;;;5062948;28;20032;-85
2021/04/25 12:39:20;;;;;;;2.47;0.50;;;;;;;;;;5051136;28;20109;-85
2021/04/25 12:41:51;;;;;;;1.42;0.60;;;;;;;;;;5048129;28;20044;-85
2021/04/25 12:44:18;;;;;;;4.50;0.70;;;;;;;;;;5044992;28;20032;-85
2021/04/25 12:46:54;;;;;;;3.17;0.40;;;;;;;;;;5066690;28;20269;-84
2021/04/25 12:49:20;;;;;;;1.13;0.50;;;;;;;;;;5067299;28;20033;-84
2021/04/25 12:51:47;;;;;;;2.35;0.60;;;;;;;;;;5051596;28;20033;-84
2021/04/25 12:54:15;;;;;;;2.47;0.43;;;;;;;;;;5051553;28;20034;-83
2021/04/25 12:56:43;;;;;;;1.20;0.60;;;;;;;;;;5062743;28;20748;-84
2021/04/25 12:59:15;;;;;;;0.60;0.30;;;;;;;;;;5050373;28;20025;-84
2021/04/25 13:01:51;;;;;;;1.20;0.40;;;;;;;;;;5075715;28;20032;-84
2021/04/25 13:04:28;;;;;;;2.67;0.40;;;;;;;;;;5074593;28;20520;-84
2021/04/25 13:07:13;;;;;;;1.15;0.47;;;;;;;;;;5052861;28;20041;-84
2021/04/25 13:09:39;;;;;;;3.63;0.60;;;;;;;;;;5065068;28;20049;-84
2021/04/25 13:12:18;;;;;;;1.17;0.35;;;;;;;;;;5056705;28;20482;-85
2021/04/25 13:14:58;;;;;;;2.15;0.45;;;;;;;;;;5046827;28;20043;-84
2021/04/25 13:17:25;;;;;;;1.10;0.30;;;;;;;;;;5050232;28;20033;-84
2021/04/25 13:19:51;;;;;;;1.42;0.47;;;;;;;;;;5054677;28;20021;-84
2021/04/25 13:22:17;;;;;;;1.45;0.20;;;;;;;;;;5063091;28;20078;-84
2021/04/25 13:24:43;;;;;;;1.42;0.32;;;;;;;;;;5052599;28;20021;-84
2021/04/25 13:27:09;;;;;;;2.45;0.55;;;;;;;;;;5070106;28;20040;-84
2021/04/25 13:29:35;;;;;;;1.13;0.30;;;;;;;;;;5070249;28;20043;-84
2021/04/25 13:32:01;;;;;;;2.65;0.40;;;;;;;;;;5070847;28;20380;-85
2021/04/25 13:34:26;;;;;;;0.55;0.30;;;;;;;;;;5072446;28;20062;-84
2021/04/25 13:36:52;;;;;;;0.38;0.20;;;;;;;;;;5073627;28;20035;-84
2021/04/25 13:39:18;;;;;;;0.60;0.30;;;;;;;;;;5050141;28;20451;-84
2021/04/25 13:41:44;;;;;;;3.50;1.00;;;;;;;;;;5053120;28;20074;-85
2021/04/25 13:44:11;;;;;;;0.43;0.20;;;;;;;;;;5053710;28;20025;-85
2021/04/25 13:46:38;;;;;;;0.47;0.10;;;;;;;;;;5048512;28;20098;-85
2021/04/25 13:49:04;;;;;;;1.15;0.30;;;;;;;;;;5047996;28;20119;-85
2021/04/25 13:51:34;;;;;;;1.75;0.30;;;;;;;;;;5055571;28;20111;-85
2021/04/25 13:54:00;;;;;;;0.95;0.25;;;;;;;;;;5057819;28;20025;-85
2021/04/25 13:56:26;;;;;;;0.55;0.20;;;;;;;;;;5072339;28;20029;-84
2021/04/25 13:58:53;;;;;;;0.43;0.20;;;;;;;;;;5054436;28;20431;-85
2021/04/25 14:01:19;;;;;;;2.85;0.47;;;;;;;;;;5052776;28;20116;-84
2021/04/25 14:03:45;;;;;;;1.65;0.50;;;;;;;;;;5074623;28;20099;-84
2021/04/25 14:06:11;;;;;;;0.50;0.10;;;;;;;;;;5053340;28;20072;-84
2021/04/25 14:08:37;;;;;;;1.27;0.45;;;;;;;;;;5071719;28;20111;-84
2021/04/25 14:11:04;;;;;;;1.83;0.50;;;;;;;;;;5050193;28;20104;-84
2021/04/25 14:13:30;;;;;;;0.38;0.38;;;;;;;;;;5054463;28;20074;-83
2021/04/25 14:15:56;;;;;;;0.65;0.20;;;;;;;;;;5063509;28;20052;-83
2021/04/25 14:18:22;;;;;;;1.55;0.95;;;;;;;;;;5049151;28;20031;-84
2021/04/25 14:20:48;;;;;;;1.33;0.20;;;;;;;;;;5055430;28;20381;-84
2021/04/25 14:23:14;;;;;;;0.85;0.20;;;;;;;;;;5048964;28;20071;-85
2021/04/25 14:25:41;;;;;;;0.88;0.38;;;;;;;;;;5056572;28;20044;-85
2021/04/25 14:28:07;;;;;;;1.05;0.20;;;;;;;;;;5045124;28;20090;-85
2021/04/25 14:30:34;;;;;;;0.73;0.20;;;;;;;;;;5076357;28;20545;-85
2021/04/25 14:33:03;;;;;;;0.20;0.20;;;;;;;;;;5057497;28;20034;-85
2021/04/25 14:35:30;;;;;;;3.47;0.57;;;;;;;;;;5065639;28;20354;-84
2021/04/25 14:37:56;;;;;;;2.35;0.35;;;;;;;;;;5051433;28;20062;-85
2021/04/25 14:40:24;;;;;;;0.50;0.20;;;;;;;;;;5065165;28;20085;-85
2021/04/25 14:42:51;;;;;;;1.70;0.30;;;;;;;;;;5045374;28;20493;-85
2021/04/25 14:45:17;;;;;;;2.88;0.20;;;;;;;;;;5048494;28;20053;-85
2021/04/25 14:47:44;;;;;;;0.85;0.30;;;;;;;;;;5052357;28;20063;-85